Time;durP1;ratioP1;P1;durP2;ratioP2;P2;SDS_P1;SDS_P2;PMS_P1;PMS_P2;Temp;Humidity;BMP_temperature;BMP_pressure;BME280_temperature;BME280_humidity;BME280_pressure;Samples;Min_cycle;Max_cycle;Signal;HPM_P1;HPM_P2
2021/11/20 00:00:20;;;;;;;0.63;0.20;;;;;;;;;;5053848;28;20060;-64
2021/11/20 00:02:46;;;;;;;1.30;0.15;;;;;;;;;;5052369;28;20396;-64
2021/11/20 00:05:12;;;;;;;1.70;0.28;;;;;;;;;;5053525;28;20024;-65
2021/11/20 00:07:39;;;;;;;0.20;0.10;;;;;;;;;;5053748;28;20021;-64
2021/11/20 00:10:06;;;;;;;0.80;0.20;;;;;;;;;;5053325;28;20048;-64
2021/11/20 00:12:31;;;;;;;0.50;0.10;;;;;;;;;;5053342;28;20031;-64
2021/11/20 00:14:58;;;;;;;0.52;0.13;;;;;;;;;;5053593;28;20099;-65
2021/11/20 00:17:23;;;;;;;0.32;0.10;;;;;;;;;;5053436;28;20100;-64
2021/11/20 00:19:49;;;;;;;0.90;0.40;;;;;;;;;;5053161;28;20029;-64
2021/11/20 00:22:17;;;;;;;0.43;0.10;;;;;;;;;;5053292;28;20013;-65
2021/11/20 00:24:48;;;;;;;1.73;0.20;;;;;;;;;;5053507;28;20104;-65
2021/11/20 00:27:18;;;;;;;1.90;0.15;;;;;;;;;;5053073;28;20056;-65
2021/11/20 00:29:58;;;;;;;1.35;0.10;;;;;;;;;;5053265;28;20021;-64
2021/11/20 00:32:27;;;;;;;0.60;0.03;;;;;;;;;;5052987;28;20025;-65
2021/11/20 00:34:53;;;;;;;1.23;0.10;;;;;;;;;;5053242;28;20028;-64
2021/11/20 00:37:18;;;;;;;0.80;0.10;;;;;;;;;;5052918;28;20021;-64
2021/11/20 00:39:43;;;;;;;0.35;0.30;;;;;;;;;;5052834;28;20024;-65
2021/11/20 00:42:10;;;;;;;1.08;0.20;;;;;;;;;;5053037;28;20527;-64
2021/11/20 00:44:35;;;;;;;0.20;0.10;;;;;;;;;;5052902;28;20043;-64
2021/11/20 00:47:00;;;;;;;0.75;0.15;;;;;;;;;;5052948;28;20029;-64
2021/11/20 00:49:26;;;;;;;0.65;0.08;;;;;;;;;;5052948;28;20154;-65
2021/11/20 00:51:52;;;;;;;0.00;0.00;;;;;;;;;;5053037;28;20040;-65
2021/11/20 00:54:18;;;;;;;0.88;0.20;;;;;;;;;;5052765;28;20025;-64
2021/11/20 00:56:43;;;;;;;0.52;0.10;;;;;;;;;;5053019;28;20032;-64
2021/11/20 00:59:09;;;;;;;1.48;0.25;;;;;;;;;;5052745;28;20293;-65
2021/11/20 01:01:36;;;;;;;0.68;0.10;;;;;;;;;;5054795;28;20016;-65
2021/11/20 01:04:02;;;;;;;1.10;0.10;;;;;;;;;;5056614;28;20028;-64
2021/11/20 01:06:27;;;;;;;0.85;0.20;;;;;;;;;;5057094;28;20027;-64
2021/11/20 01:08:54;;;;;;;2.58;0.28;;;;;;;;;;5056810;28;20096;-65
2021/11/20 01:11:22;;;;;;;0.73;0.10;;;;;;;;;;5056884;28;20016;-64
2021/11/20 01:13:48;;;;;;;0.50;0.10;;;;;;;;;;5056851;28;20025;-64
2021/11/20 01:16:13;;;;;;;0.65;0.10;;;;;;;;;;5056535;28;20073;-64
2021/11/20 01:18:39;;;;;;;1.10;0.05;;;;;;;;;;5056954;28;20522;-65
2021/11/20 01:21:04;;;;;;;0.47;0.20;;;;;;;;;;5056530;28;20013;-64
2021/11/20 01:23:30;;;;;;;1.00;0.10;;;;;;;;;;5056817;28;20013;-64
2021/11/20 01:25:56;;;;;;;2.28;0.30;;;;;;;;;;5056512;28;20048;-64
2021/11/20 01:28:22;;;;;;;1.38;0.00;;;;;;;;;;5056638;28;20098;-64
2021/11/20 01:30:48;;;;;;;0.95;0.10;;;;;;;;;;5056714;28;20052;-64
2021/11/20 01:33:13;;;;;;;0.60;0.22;;;;;;;;;;5056326;28;20079;-64
2021/11/20 01:35:38;;;;;;;1.20;0.10;;;;;;;;;;5056435;28;20020;-64
2021/11/20 01:38:04;;;;;;;0.20;0.00;;;;;;;;;;5056161;28;20345;-64
2021/11/20 01:40:32;;;;;;;1.25;0.10;;;;;;;;;;5056173;28;20044;-64
2021/11/20 01:42:57;;;;;;;1.35;0.08;;;;;;;;;;5056222;28;20092;-64
2021/11/20 01:45:32;;;;;;;0.20;0.10;;;;;;;;;;5056417;28;20507;-64
2021/11/20 01:48:06;;;;;;;0.13;0.00;;;;;;;;;;5056075;28;20025;-63
2021/11/20 01:50:31;;;;;;;;;;;;;;;;;;5056420;28;20123;-63
2021/11/20 01:53:17;;;;;;;0.00;0.00;;;;;;;;;;5056236;28;19983;-65
2021/11/20 01:56:04;;;;;;;0.77;0.10;;;;;;;;;;5055585;28;20075;-64
2021/11/20 01:58:29;;;;;;;0.38;0.00;;;;;;;;;;5055954;28;20524;-63
2021/11/20 02:01:03;;;;;;;0.75;0.10;;;;;;;;;;5064661;22;20551;-65
2021/11/20 02:03:31;;;;;;;0.73;0.10;;;;;;;;;;5035325;28;20427;-65
2021/11/20 02:05:56;;;;;;;0.70;0.10;;;;;;;;;;5036022;28;20453;-63
2021/11/20 02:08:40;;;;;;;0.88;0.15;;;;;;;;;;5034720;28;20713;-65
2021/11/20 02:11:09;;;;;;;0.20;0.10;;;;;;;;;;5035411;28;20022;-65
2021/11/20 02:13:35;;;;;;;0.32;0.10;;;;;;;;;;5035674;28;20507;-64
2021/11/20 02:16:03;;;;;;;0.45;0.10;;;;;;;;;;5035287;28;20400;-66
2021/11/20 02:18:30;;;;;;;0.68;0.10;;;;;;;;;;5035576;28;20021;-64
2021/11/20 02:21:03;;;;;;;1.98;0.22;;;;;;;;;;5035702;28;20068;-64
2021/11/20 02:23:29;;;;;;;0.35;0.00;;;;;;;;;;5035767;28;20026;-64
2021/11/20 02:25:54;;;;;;;0.32;0.10;;;;;;;;;;5035350;28;20096;-64
2021/11/20 02:28:19;;;;;;;1.02;0.10;;;;;;;;;;5035610;28;20024;-64
2021/11/20 02:30:46;;;;;;;0.57;0.22;;;;;;;;;;5035660;28;20026;-63
2021/11/20 02:33:13;;;;;;;0.20;0.10;;;;;;;;;;5035239;28;20026;-63
2021/11/20 02:35:39;;;;;;;1.55;0.47;;;;;;;;;;5035474;28;20029;-65
2021/11/20 02:38:05;;;;;;;0.85;0.10;;;;;;;;;;5035192;28;20022;-64
2021/11/20 02:40:30;;;;;;;0.65;0.20;;;;;;;;;;5035379;28;20014;-64
2021/11/20 02:42:56;;;;;;;0.80;0.30;;;;;;;;;;5035502;28;20475;-63
2021/11/20 02:45:23;;;;;;;0.20;0.13;;;;;;;;;;5035348;28;20014;-65
2021/11/20 02:47:49;;;;;;;0.90;0.10;;;;;;;;;;5035298;28;20029;-64
2021/11/20 02:50:15;;;;;;;0.40;0.00;;;;;;;;;;5033687;28;20013;-63
2021/11/20 02:52:40;;;;;;;1.25;0.03;;;;;;;;;;5033947;28;20017;-64
2021/11/20 02:55:07;;;;;;;0.73;0.20;;;;;;;;;;5034461;28;20487;-64
2021/11/20 02:57:36;;;;;;;1.05;0.22;;;;;;;;;;5034975;28;20034;-65
2021/11/20 03:00:03;;;;;;;1.00;0.22;;;;;;;;;;5034858;28;20028;-63
2021/11/20 03:02:28;;;;;;;1.40;0.10;;;;;;;;;;5034770;28;20064;-63
2021/11/20 03:04:53;;;;;;;1.30;0.30;;;;;;;;;;5034527;28;20454;-65
2021/11/20 03:07:19;;;;;;;0.50;0.20;;;;;;;;;;5034720;28;20250;-64
2021/11/20 03:09:46;;;;;;;0.60;0.15;;;;;;;;;;5034573;28;20021;-64
2021/11/20 03:12:12;;;;;;;0.00;0.00;;;;;;;;;;5034579;28;20024;-63
2021/11/20 03:14:38;;;;;;;0.50;0.10;;;;;;;;;;5034792;28;20049;-65
2021/11/20 03:17:04;;;;;;;0.52;0.10;;;;;;;;;;5034568;28;20472;-64
2021/11/20 03:19:31;;;;;;;0.17;0.10;;;;;;;;;;5034736;28;20022;-63
2021/11/20 03:21:58;;;;;;;0.98;0.10;;;;;;;;;;5034556;28;20435;-64
2021/11/20 03:24:25;;;;;;;0.28;0.10;;;;;;;;;;5033764;28;20049;-65
2021/11/20 03:26:50;;;;;;;2.78;0.30;;;;;;;;;;5034267;28;20022;-65
2021/11/20 03:29:16;;;;;;;0.30;0.10;;;;;;;;;;5034405;28;20032;-64
2021/11/20 03:31:42;;;;;;;0.00;0.00;;;;;;;;;;5034498;28;20025;-63
2021/11/20 03:34:07;;;;;;;0.50;0.10;;;;;;;;;;5034091;28;20022;-65
2021/11/20 03:36:34;;;;;;;0.15;0.10;;;;;;;;;;5034136;28;20033;-64
2021/11/20 03:39:00;;;;;;;3.67;0.35;;;;;;;;;;5033935;28;20009;-64
2021/11/20 03:41:25;;;;;;;0.22;0.05;;;;;;;;;;5034271;28;20064;-64
2021/11/20 03:43:50;;;;;;;1.00;0.20;;;;;;;;;;5034058;28;20495;-64
2021/11/20 03:46:16;;;;;;;0.20;0.10;;;;;;;;;;5034051;28;20028;-65
2021/11/20 03:48:41;;;;;;;1.10;0.17;;;;;;;;;;5034017;28;20097;-64
2021/11/20 03:51:06;;;;;;;0.65;0.20;;;;;;;;;;5033749;28;20100;-63
2021/11/20 03:53:32;;;;;;;0.20;0.00;;;;;;;;;;5033773;28;20090;-65
2021/11/20 03:55:57;;;;;;;0.65;0.30;;;;;;;;;;5033894;28;20682;-64
2021/11/20 03:58:22;;;;;;;0.70;0.10;;;;;;;;;;5033845;28;20021;-63
2021/11/20 04:00:51;;;;;;;0.50;0.10;;;;;;;;;;5033789;28;20511;-64
2021/11/20 04:03:20;;;;;;;0.88;0.15;;;;;;;;;;5033780;28;20060;-64
2021/11/20 04:05:46;;;;;;;0.50;0.00;;;;;;;;;;5033685;28;20445;-65
2021/11/20 04:08:12;;;;;;;1.40;0.40;;;;;;;;;;5033664;28;20032;-63
2021/11/20 04:10:37;;;;;;;0.93;0.10;;;;;;;;;;5033556;28;20025;-63
2021/11/20 04:13:02;;;;;;;1.00;0.30;;;;;;;;;;5033588;28;20069;-66
2021/11/20 04:15:27;;;;;;;0.98;0.10;;;;;;;;;;5033517;28;20059;-63
2021/11/20 04:17:53;;;;;;;0.35;0.10;;;;;;;;;;5033380;28;20030;-64
2021/11/20 04:20:19;;;;;;;0.40;0.20;;;;;;;;;;5033255;28;20037;-64
2021/11/20 04:22:45;;;;;;;1.55;0.30;;;;;;;;;;5033556;28;20052;-64
2021/11/20 04:25:12;;;;;;;0.93;0.20;;;;;;;;;;5033465;28;20641;-64
2021/11/20 04:27:37;;;;;;;1.60;0.20;;;;;;;;;;5033381;28;20029;-63
2021/11/20 04:30:03;;;;;;;0.85;0.20;;;;;;;;;;5033253;28;20366;-65
2021/11/20 04:32:28;;;;;;;0.45;0.10;;;;;;;;;;5033029;28;20412;-64
2021/11/20 04:34:53;;;;;;;0.20;0.05;;;;;;;;;;5033214;28;20021;-65
2021/11/20 04:37:19;;;;;;;0.55;0.10;;;;;;;;;;5033157;28;20044;-63
2021/11/20 04:39:44;;;;;;;0.82;0.20;;;;;;;;;;5033110;28;20026;-64
2021/11/20 04:42:09;;;;;;;0.98;0.10;;;;;;;;;;5032990;28;20025;-64
2021/11/20 04:44:34;;;;;;;0.38;0.10;;;;;;;;;;5033315;28;20017;-63
2021/11/20 04:47:00;;;;;;;0.55;0.10;;;;;;;;;;5033013;28;20453;-64
2021/11/20 04:49:25;;;;;;;0.50;0.08;;;;;;;;;;5033268;28;20017;-65
2021/11/20 04:51:50;;;;;;;1.20;0.30;;;;;;;;;;5032841;28;20376;-63
2021/11/20 04:54:16;;;;;;;1.48;0.75;;;;;;;;;;5032850;28;20373;-64
2021/11/20 04:56:41;;;;;;;0.90;0.15;;;;;;;;;;5032833;28;20032;-64
2021/11/20 04:59:07;;;;;;;0.40;0.20;;;;;;;;;;5032930;28;20021;-65
2021/11/20 05:01:32;;;;;;;0.22;0.03;;;;;;;;;;5032918;28;20045;-64
2021/11/20 05:03:59;;;;;;;0.28;0.00;;;;;;;;;;5032533;28;20069;-64
2021/11/20 05:06:24;;;;;;;0.03;0.03;;;;;;;;;;5033123;28;20461;-63
2021/11/20 05:08:50;;;;;;;0.35;0.10;;;;;;;;;;5033143;28;20099;-64
2021/11/20 05:11:15;;;;;;;1.98;0.13;;;;;;;;;;5032614;28;20064;-65
2021/11/20 05:13:42;;;;;;;0.20;0.10;;;;;;;;;;5032940;28;20028;-64
2021/11/20 05:16:07;;;;;;;1.40;0.20;;;;;;;;;;5032611;28;20080;-64
2021/11/20 05:18:33;;;;;;;0.40;0.20;;;;;;;;;;5033038;28;20457;-64
2021/11/20 05:20:59;;;;;;;0.75;0.13;;;;;;;;;;5032939;28;20416;-65
2021/11/20 05:23:25;;;;;;;1.80;0.63;;;;;;;;;;5032915;28;20024;-64
2021/11/20 05:25:50;;;;;;;0.50;0.20;;;;;;;;;;5032503;28;20436;-63
2021/11/20 05:28:15;;;;;;;0.50;0.10;;;;;;;;;;5032440;28;20021;-65
2021/11/20 05:30:41;;;;;;;0.73;0.13;;;;;;;;;;5032879;28;20021;-64
2021/11/20 05:33:09;;;;;;;0.82;0.10;;;;;;;;;;5032563;28;20116;-64
2021/11/20 05:35:35;;;;;;;0.55;0.20;;;;;;;;;;5032641;28;20064;-65
2021/11/20 05:38:00;;;;;;;2.40;0.10;;;;;;;;;;5032403;28;20033;-65
2021/11/20 05:40:26;;;;;;;0.77;0.17;;;;;;;;;;5032816;28;20025;-64
2021/11/20 05:42:53;;;;;;;0.57;0.32;;;;;;;;;;5032676;28;20018;-63
2021/11/20 05:45:21;;;;;;;1.30;0.20;;;;;;;;;;5032352;28;20479;-66
2021/11/20 05:47:47;;;;;;;1.67;0.30;;;;;;;;;;5035599;28;20460;-64
2021/11/20 05:50:12;;;;;;;0.85;0.10;;;;;;;;;;5036204;28;20666;-65
2021/11/20 05:52:37;;;;;;;1.35;0.10;;;;;;;;;;5036438;28;20029;-63
2021/11/20 05:55:03;;;;;;;0.45;0.30;;;;;;;;;;5035974;28;20419;-65
2021/11/20 05:57:28;;;;;;;2.35;0.25;;;;;;;;;;5036152;28;20108;-64
2021/11/20 05:59:54;;;;;;;1.50;0.28;;;;;;;;;;5035989;28;20101;-65
2021/11/20 06:02:19;;;;;;;1.33;0.17;;;;;;;;;;5035819;28;20053;-63
2021/11/20 06:04:44;;;;;;;1.10;0.22;;;;;;;;;;5036002;28;20018;-63
2021/11/20 06:07:11;;;;;;;0.35;0.10;;;;;;;;;;5035716;28;20480;-65
2021/11/20 06:09:38;;;;;;;2.33;0.70;;;;;;;;;;5035737;28;20021;-64
2021/11/20 06:12:03;;;;;;;1.20;0.10;;;;;;;;;;5035931;28;20029;-64
2021/11/20 06:14:28;;;;;;;0.93;0.10;;;;;;;;;;5035678;28;20111;-64
2021/11/20 06:16:53;;;;;;;1.60;0.20;;;;;;;;;;5035795;28;20033;-65
2021/11/20 06:19:19;;;;;;;0.50;0.10;;;;;;;;;;5035671;28;20029;-64
2021/11/20 06:21:44;;;;;;;1.58;0.40;;;;;;;;;;5035917;28;20460;-64
2021/11/20 06:24:09;;;;;;;0.85;0.10;;;;;;;;;;5035474;28;20362;-64
2021/11/20 06:26:35;;;;;;;1.48;0.32;;;;;;;;;;5035398;28;20025;-64
2021/11/20 06:29:00;;;;;;;0.52;0.10;;;;;;;;;;5035478;28;20040;-64
2021/11/20 06:31:27;;;;;;;1.13;0.30;;;;;;;;;;5035620;28;20384;-64
2021/11/20 06:33:52;;;;;;;0.45;0.15;;;;;;;;;;5035216;28;20464;-64
2021/11/20 06:36:18;;;;;;;0.45;0.40;;;;;;;;;;5035636;28;20040;-65
2021/11/20 06:38:44;;;;;;;0.30;0.10;;;;;;;;;;5035370;28;20369;-66
2021/11/20 06:41:10;;;;;;;0.55;0.20;;;;;;;;;;5035253;28;20029;-63
2021/11/20 06:43:36;;;;;;;1.42;0.10;;;;;;;;;;5035426;28;20021;-64
2021/11/20 06:46:05;;;;;;;0.52;0.13;;;;;;;;;;5034979;28;20017;-64
2021/11/20 06:48:30;;;;;;;1.15;0.10;;;;;;;;;;5035360;28;20029;-65
2021/11/20 06:50:56;;;;;;;1.17;0.20;;;;;;;;;;5035056;28;20021;-63
2021/11/20 06:53:23;;;;;;;1.35;0.22;;;;;;;;;;5035104;28;20109;-64
2021/11/20 06:55:48;;;;;;;0.73;0.20;;;;;;;;;;5035171;28;20036;-65
2021/11/20 07:00:43;;;;;;;1.90;0.15;;;;;;;;;;5035101;28;20028;-64
2021/11/20 07:03:17;;;;;;;0.43;0.15;;;;;;;;;;5034768;28;20033;-64
2021/11/20 07:05:47;;;;;;;1.15;0.10;;;;;;;;;;5034972;28;20013;-65
2021/11/20 07:08:13;;;;;;;0.88;0.20;;;;;;;;;;5034661;28;20026;-63
2021/11/20 07:10:39;;;;;;;0.63;0.20;;;;;;;;;;5034864;28;20021;-64
2021/11/20 07:13:05;;;;;;;1.10;0.10;;;;;;;;;;5034699;28;20025;-65
2021/11/20 07:15:30;;;;;;;0.68;0.20;;;;;;;;;;5034796;28;20464;-63
2021/11/20 07:17:56;;;;;;;1.15;0.28;;;;;;;;;;5034607;28;20022;-65
2021/11/20 07:20:24;;;;;;;0.90;0.10;;;;;;;;;;5034645;28;20037;-64
2021/11/20 07:22:49;;;;;;;0.95;0.10;;;;;;;;;;5034543;28;20022;-64
2021/11/20 07:25:14;;;;;;;0.45;0.10;;;;;;;;;;5034537;28;20063;-65
2021/11/20 07:27:39;;;;;;;2.72;0.25;;;;;;;;;;5034324;28;20021;-65
2021/11/20 07:30:07;;;;;;;1.17;0.20;;;;;;;;;;5034299;28;20029;-63
2021/11/20 07:32:33;;;;;;;0.68;0.35;;;;;;;;;;5034268;28;20100;-64
2021/11/20 07:34:58;;;;;;;0.50;0.10;;;;;;;;;;5034134;28;20487;-65
2021/11/20 07:37:23;;;;;;;0.80;0.10;;;;;;;;;;5034324;28;20024;-63
2021/11/20 07:39:48;;;;;;;0.93;0.28;;;;;;;;;;5034284;28;20017;-64
2021/11/20 07:42:14;;;;;;;0.30;0.10;;;;;;;;;;5034024;28;20457;-64
2021/11/20 07:44:39;;;;;;;1.17;0.20;;;;;;;;;;5034359;28;20278;-65
2021/11/20 07:47:04;;;;;;;0.73;0.28;;;;;;;;;;5033868;28;20017;-64
2021/11/20 07:49:29;;;;;;;0.10;0.00;;;;;;;;;;5033966;28;20025;-64
2021/11/20 07:51:55;;;;;;;1.85;0.20;;;;;;;;;;5033983;28;20376;-64
2021/11/20 07:54:20;;;;;;;0.35;0.00;;;;;;;;;;5034037;28;20470;-65
2021/11/20 07:56:46;;;;;;;1.95;0.13;;;;;;;;;;5034083;28;20021;-63
2021/11/20 07:59:16;;;;;;;1.58;0.10;;;;;;;;;;5032493;28;20417;-64
2021/11/20 08:01:41;;;;;;;0.35;0.10;;;;;;;;;;5033810;28;20041;-64
2021/11/20 08:04:07;;;;;;;0.40;0.03;;;;;;;;;;5033581;28;20400;-64
2021/11/20 08:06:32;;;;;;;0.83;0.20;;;;;;;;;;5033555;28;20025;-64
2021/11/20 08:09:04;;;;;;;1.42;0.10;;;;;;;;;;5033166;28;20251;-64
2021/11/20 08:11:33;;;;;;;1.90;0.20;;;;;;;;;;5032622;28;20068;-65
2021/11/20 08:13:59;;;;;;;0.90;0.22;;;;;;;;;;5033133;28;20022;-64
2021/11/20 08:16:25;;;;;;;0.95;0.10;;;;;;;;;;5033598;28;20027;-64
2021/11/20 08:18:50;;;;;;;1.17;0.20;;;;;;;;;;5033397;28;20018;-64
2021/11/20 08:21:16;;;;;;;1.00;0.07;;;;;;;;;;5033403;28;20479;-64
2021/11/20 08:23:42;;;;;;;0.30;0.15;;;;;;;;;;5033603;28;20288;-64
2021/11/20 08:26:08;;;;;;;1.02;0.52;;;;;;;;;;5033020;28;20018;-65
2021/11/20 08:28:33;;;;;;;0.70;0.17;;;;;;;;;;5033556;28;20048;-64
2021/11/20 08:30:58;;;;;;;0.28;0.03;;;;;;;;;;5033002;28;20516;-64
2021/11/20 08:33:24;;;;;;;0.73;0.10;;;;;;;;;;5033290;28;20155;-64
2021/11/20 08:35:50;;;;;;;0.22;0.03;;;;;;;;;;5033252;28;20104;-65
2021/11/20 08:38:15;;;;;;;0.85;0.10;;;;;;;;;;5033031;28;20018;-63
2021/11/20 08:40:42;;;;;;;2.30;0.40;;;;;;;;;;5033301;28;20093;-64
2021/11/20 08:43:07;;;;;;;0.68;0.17;;;;;;;;;;5033083;28;20060;-65
2021/11/20 08:45:35;;;;;;;0.65;0.13;;;;;;;;;;5033415;28;20029;-65
2021/11/20 08:48:00;;;;;;;0.90;0.20;;;;;;;;;;5033103;28;20052;-64
2021/11/20 08:50:31;;;;;;;1.17;0.13;;;;;;;;;;5033235;28;20408;-64
2021/11/20 08:52:56;;;;;;;0.43;0.10;;;;;;;;;;5032902;28;20026;-64
2021/11/20 08:55:21;;;;;;;0.40;0.00;;;;;;;;;;5033052;28;20052;-64
2021/11/20 08:57:47;;;;;;;0.75;0.30;;;;;;;;;;5031945;28;20025;-64
2021/11/20 09:00:17;;;;;;;0.85;0.20;;;;;;;;;;5032813;28;20025;-65
2021/11/20 09:02:46;;;;;;;1.30;0.10;;;;;;;;;;5032817;28;20579;-64
2021/11/20 09:05:14;;;;;;;0.77;0.10;;;;;;;;;;5032875;28;20053;-64
2021/11/20 09:07:55;;;;;;;1.85;0.50;;;;;;;;;;5033014;28;20488;-64
2021/11/20 09:10:40;;;;;;;2.05;0.55;;;;;;;;;;5032958;28;20649;-64
2021/11/20 09:13:11;;;;;;;1.10;0.15;;;;;;;;;;5032555;28;20544;-64
2021/11/20 09:15:39;;;;;;;0.52;0.10;;;;;;;;;;5032785;28;20025;-65
2021/11/20 09:18:05;;;;;;;1.85;0.20;;;;;;;;;;5032799;28;20084;-64
2021/11/20 09:20:30;;;;;;;0.63;0.20;;;;;;;;;;5032595;28;20022;-64
2021/11/20 09:22:56;;;;;;;1.45;0.30;;;;;;;;;;5036348;28;20036;-64
2021/11/20 09:25:21;;;;;;;0.35;0.10;;;;;;;;;;5036894;28;20048;-65
2021/11/20 09:27:48;;;;;;;0.60;0.20;;;;;;;;;;5036791;28;20021;-64
2021/11/20 09:30:16;;;;;;;0.93;0.30;;;;;;;;;;5036298;28;20025;-64
2021/11/20 09:32:41;;;;;;;1.58;0.20;;;;;;;;;;5036763;28;20066;-64
2021/11/20 09:35:06;;;;;;;0.65;0.30;;;;;;;;;;5036311;28;20463;-64
2021/11/20 09:37:32;;;;;;;0.70;0.45;;;;;;;;;;5036673;28;20413;-63
2021/11/20 09:39:57;;;;;;;0.73;0.20;;;;;;;;;;5036395;28;20028;-64
2021/11/20 09:42:34;;;;;;;1.70;0.40;;;;;;;;;;5036537;28;20527;-65
2021/11/20 09:45:20;;;;;;;1.13;0.28;;;;;;;;;;5036169;28;20027;-63
2021/11/20 09:48:07;;;;;;;1.27;0.15;;;;;;;;;;5036546;28;20452;-63
2021/11/20 09:50:35;;;;;;;0.52;0.10;;;;;;;;;;5036552;28;20037;-65
2021/11/20 09:53:01;;;;;;;1.88;0.35;;;;;;;;;;5036224;28;20104;-63
2021/11/20 09:55:32;;;;;;;0.70;0.10;;;;;;;;;;5036518;28;20099;-63
2021/11/20 09:58:10;;;;;;;1.20;0.25;;;;;;;;;;5036074;28;20017;-65
2021/11/20 10:00:53;;;;;;;0.85;0.50;;;;;;;;;;5036345;28;20024;-64
2021/11/20 10:03:48;;;;;;;0.93;0.13;;;;;;;;;;5036063;28;20045;-63
2021/11/20 10:06:26;;;;;;;0.28;0.00;;;;;;;;;;4974951;28;20023;-64
2021/11/20 10:09:02;;;;;;;0.55;0.10;;;;;;;;;;4974913;28;20466;-65
2021/11/20 10:11:33;;;;;;;0.98;0.40;;;;;;;;;;4975104;28;20113;-65
2021/11/20 10:14:01;;;;;;;0.98;0.10;;;;;;;;;;4974599;28;20475;-63
2021/11/20 10:16:46;;;;;;;0.75;0.10;;;;;;;;;;4974683;28;20034;-64
2021/11/20 10:19:11;;;;;;;0.50;0.05;;;;;;;;;;4974414;28;20387;-64
2021/11/20 10:21:43;;;;;;;0.47;0.10;;;;;;;;;;4974808;28;20026;-63
2021/11/20 10:24:15;;;;;;;1.33;0.30;;;;;;;;;;4974848;28;20410;-64
2021/11/20 10:26:59;;;;;;;1.65;0.20;;;;;;;;;;4974790;28;20027;-64
2021/11/20 10:29:27;;;;;;;0.35;0.15;;;;;;;;;;4974725;28;20113;-63
2021/11/20 10:32:04;;;;;;;0.98;0.28;;;;;;;;;;4973855;28;20121;-64
2021/11/20 10:34:35;;;;;;;1.08;0.17;;;;;;;;;;4974680;28;20062;-64
2021/11/20 10:37:06;;;;;;;0.08;0.05;;;;;;;;;;4974183;28;20036;-63
2021/11/20 10:39:34;;;;;;;1.65;0.30;;;;;;;;;;4974470;28;20358;-65
2021/11/20 10:41:59;;;;;;;0.70;0.10;;;;;;;;;;4989270;28;20059;-64
2021/11/20 10:44:27;;;;;;;1.07;0.20;;;;;;;;;;5035356;28;20481;-65
2021/11/20 10:46:55;;;;;;;0.20;0.10;;;;;;;;;;5035439;28;20385;-63
2021/11/20 10:49:20;;;;;;;0.05;0.00;;;;;;;;;;5035188;28;20099;-64
2021/11/20 10:52:18;;;;;;;0.98;0.20;;;;;;;;;;5035039;28;20057;-65
2021/11/20 10:54:52;;;;;;;0.43;0.08;;;;;;;;;;5013249;28;20038;-63
2021/11/20 10:57:29;;;;;;;0.70;0.20;;;;;;;;;;5013017;28;20038;-64
2021/11/20 10:59:55;;;;;;;0.00;0.00;;;;;;;;;;5013139;28;20045;-65
2021/11/20 11:02:28;;;;;;;0.98;0.10;;;;;;;;;;5012630;28;20038;-64
2021/11/20 11:04:59;;;;;;;0.10;0.10;;;;;;;;;;4996916;28;20381;-64
2021/11/20 11:07:27;;;;;;;0.10;0.10;;;;;;;;;;5013130;28;20076;-65
2021/11/20 11:09:55;;;;;;;0.65;0.20;;;;;;;;;;5012700;28;20034;-63
2021/11/20 11:12:39;;;;;;;1.73;0.20;;;;;;;;;;5012535;28;20025;-64
2021/11/20 11:15:05;;;;;;;1.15;0.20;;;;;;;;;;5012716;28;20396;-64
2021/11/20 11:17:35;;;;;;;0.52;0.10;;;;;;;;;;5012521;28;20034;-63
2021/11/20 11:20:12;;;;;;;0.65;0.20;;;;;;;;;;5012533;28;20040;-64
2021/11/20 11:22:43;;;;;;;0.20;0.10;;;;;;;;;;5012640;28;20523;-64
2021/11/20 11:25:13;;;;;;;0.70;0.15;;;;;;;;;;5012537;28;20075;-63
2021/11/20 11:27:49;;;;;;;0.95;0.30;;;;;;;;;;5012623;28;20428;-64
2021/11/20 11:30:17;;;;;;;1.58;0.10;;;;;;;;;;5022745;28;20469;-65
2021/11/20 11:32:44;;;;;;;0.95;0.28;;;;;;;;;;5034637;28;20033;-63
2021/11/20 11:35:19;;;;;;;1.95;0.73;;;;;;;;;;5034364;28;20040;-64
2021/11/20 11:37:44;;;;;;;;;;;;;;;;;;5034549;28;20405;-63
2021/11/20 11:40:31;;;;;;;0.73;0.10;;;;;;;;;;5034272;28;19924;-65
2021/11/20 11:43:03;;;;;;;0.52;0.00;;;;;;;;;;5033994;28;20594;-64
2021/11/20 11:45:28;;;;;;;1.35;0.20;;;;;;;;;;5033904;28;20392;-63
2021/11/20 11:47:55;;;;;;;0.30;0.10;;;;;;;;;;5034196;28;20101;-65
2021/11/20 11:50:39;;;;;;;0.88;0.40;;;;;;;;;;5033805;28;20255;-64
2021/11/20 11:53:23;;;;;;;0.75;0.10;;;;;;;;;;5033955;28;20033;-63
2021/11/20 11:55:52;;;;;;;0.73;0.20;;;;;;;;;;5034212;28;20028;-65
2021/11/20 11:58:20;;;;;;;0.75;0.22;;;;;;;;;;5033769;28;20022;-63
2021/11/20 12:00:48;;;;;;;3.95;0.63;;;;;;;;;;5034016;28;20071;-63
2021/11/20 12:03:25;;;;;;;0.60;0.10;;;;;;;;;;5033507;28;20124;-65
2021/11/20 12:06:03;;;;;;;0.47;0.20;;;;;;;;;;5033629;28;20052;-64
2021/11/20 12:08:36;;;;;;;0.10;0.10;;;;;;;;;;5033965;28;20025;-63
2021/11/20 12:11:01;;;;;;;1.08;0.40;;;;;;;;;;5033442;28;20376;-65
2021/11/20 12:13:29;;;;;;;1.50;0.20;;;;;;;;;;5033955;28;20097;-63
2021/11/20 12:16:07;;;;;;;0.57;0.10;;;;;;;;;;5033380;28;20044;-65
2021/11/20 12:18:38;;;;;;;1.10;0.35;;;;;;;;;;5033773;28;20028;-65
2021/11/20 12:21:17;;;;;;;1.23;0.10;;;;;;;;;;5033411;28;20434;-64
2021/11/20 12:23:49;;;;;;;1.92;0.20;;;;;;;;;;5033578;28;20020;-64
2021/11/20 12:26:14;;;;;;;0.75;0.20;;;;;;;;;;5033362;28;20032;-64
2021/11/20 12:29:02;;;;;;;0.83;0.20;;;;;;;;;;5033419;28;20432;-64
2021/11/20 12:31:33;;;;;;;1.02;0.28;;;;;;;;;;5033500;28;20668;-65
2021/11/20 12:34:19;;;;;;;0.38;0.20;;;;;;;;;;5033198;28;20044;-65
2021/11/20 12:37:03;;;;;;;0.98;0.15;;;;;;;;;;5032898;28;20037;-64
2021/11/20 12:39:34;;;;;;;1.30;0.10;;;;;;;;;;5033232;28;20024;-65
2021/11/20 12:42:05;;;;;;;1.15;0.20;;;;;;;;;;5033277;28;20173;-64
2021/11/20 12:44:30;;;;;;;0.98;0.20;;;;;;;;;;5033307;28;20498;-64
2021/11/20 12:47:14;;;;;;;0.30;0.07;;;;;;;;;;5033175;28;20029;-65
2021/11/20 12:49:39;;;;;;;1.17;0.40;;;;;;;;;;5033316;28;20254;-64
2021/11/20 12:52:20;;;;;;;0.75;0.10;;;;;;;;;;5033602;28;20017;-64
2021/11/20 12:55:03;;;;;;;0.40;0.20;;;;;;;;;;5032940;28;20457;-65
2021/11/20 12:57:41;;;;;;;1.17;0.10;;;;;;;;;;5033217;28;20036;-64
2021/11/20 13:00:12;;;;;;;0.88;0.10;;;;;;;;;;5032773;28;20028;-65
2021/11/20 13:02:37;;;;;;;1.45;0.10;;;;;;;;;;5032757;28;20045;-65
2021/11/20 13:05:11;;;;;;;1.05;0.10;;;;;;;;;;5032719;28;20045;-64
2021/11/20 13:07:44;;;;;;;0.85;0.20;;;;;;;;;;5032991;28;20030;-64
2021/11/20 13:10:28;;;;;;;0.45;0.17;;;;;;;;;;5032963;28;20045;-64
2021/11/20 13:13:12;;;;;;;0.93;0.10;;;;;;;;;;5032860;28;20518;-64
2021/11/20 13:15:49;;;;;;;0.38;0.10;;;;;;;;;;5032929;28;20285;-65
2021/11/20 13:18:14;;;;;;;1.48;0.30;;;;;;;;;;5032568;28;20029;-64
2021/11/20 13:20:40;;;;;;;1.07;0.20;;;;;;;;;;5033053;28;20043;-64
2021/11/20 13:23:19;;;;;;;1.70;0.43;;;;;;;;;;5032693;28;20064;-64
2021/11/20 13:26:07;;;;;;;1.27;0.17;;;;;;;;;;5032674;28;20022;-64
2021/11/20 13:28:37;;;;;;;0.52;0.10;;;;;;;;;;4972031;28;20127;-64
2021/11/20 13:31:04;;;;;;;0.95;0.10;;;;;;;;;;4971281;28;20046;-65
2021/11/20 13:33:29;;;;;;;2.40;0.32;;;;;;;;;;4971781;28;20106;-64
2021/11/20 13:35:58;;;;;;;0.63;0.22;;;;;;;;;;4971652;28;20023;-64
2021/11/20 13:38:25;;;;;;;0.57;0.10;;;;;;;;;;4971357;28;20038;-64
2021/11/20 13:40:51;;;;;;;0.30;0.10;;;;;;;;;;4971782;28;20094;-65
2021/11/20 13:43:16;;;;;;;0.68;0.10;;;;;;;;;;4971166;28;20590;-64
2021/11/20 13:45:47;;;;;;;1.73;0.20;;;;;;;;;;4971463;28;20070;-64
2021/11/20 13:48:12;;;;;;;0.10;0.10;;;;;;;;;;4971209;28;20490;-64
2021/11/20 13:50:40;;;;;;;0.80;0.45;;;;;;;;;;4971739;28;20037;-65
2021/11/20 13:53:06;;;;;;;0.90;0.13;;;;;;;;;;4971390;28;20118;-64
2021/11/20 13:55:31;;;;;;;1.05;0.30;;;;;;;;;;4971485;28;20106;-64
2021/11/20 13:57:57;;;;;;;1.15;0.10;;;;;;;;;;4970817;28;20061;-64
2021/11/20 14:00:23;;;;;;;1.25;0.50;;;;;;;;;;4971698;28;20027;-64
2021/11/20 14:02:48;;;;;;;1.17;0.20;;;;;;;;;;4971619;28;20046;-64
2021/11/20 14:05:13;;;;;;;0.57;0.10;;;;;;;;;;4992055;28;20034;-65
2021/11/20 14:07:38;;;;;;;1.73;0.40;;;;;;;;;;5034009;28;20606;-64
2021/11/20 14:10:09;;;;;;;0.70;0.15;;;;;;;;;;5035906;28;20095;-64
2021/11/20 14:12:38;;;;;;;1.88;0.20;;;;;;;;;;5035975;28;20112;-64
2021/11/20 14:15:04;;;;;;;0.45;0.10;;;;;;;;;;5035590;28;20032;-65
2021/11/20 14:17:32;;;;;;;0.60;0.40;;;;;;;;;;5034987;28;20157;-64
2021/11/20 14:20:04;;;;;;;0.55;0.10;;;;;;;;;;5035709;28;20018;-64
2021/11/20 14:22:35;;;;;;;1.40;0.20;;;;;;;;;;5035788;28;20029;-65
2021/11/20 14:25:00;;;;;;;1.00;0.10;;;;;;;;;;5035616;28;20017;-63
2021/11/20 14:27:25;;;;;;;0.63;0.20;;;;;;;;;;5035760;28;20500;-63
2021/11/20 14:29:51;;;;;;;1.05;0.10;;;;;;;;;;5035720;28;20258;-65
2021/11/20 14:32:18;;;;;;;0.82;0.20;;;;;;;;;;5035348;28;20021;-64
2021/11/20 14:34:45;;;;;;;1.48;0.30;;;;;;;;;;5035709;28;20067;-65
2021/11/20 14:37:18;;;;;;;0.80;0.13;;;;;;;;;;5035262;28;20087;-64
2021/11/20 14:39:48;;;;;;;1.38;0.13;;;;;;;;;;5035629;28;20021;-64
2021/11/20 14:42:14;;;;;;;1.95;0.40;;;;;;;;;;5035222;28;20017;-64
2021/11/20 14:44:39;;;;;;;1.30;0.35;;;;;;;;;;5035464;28;20097;-64
2021/11/20 14:47:12;;;;;;;1.38;0.10;;;;;;;;;;5035185;28;20036;-63
2021/11/20 14:49:38;;;;;;;0.77;0.20;;;;;;;;;;5035374;28;20485;-66
2021/11/20 14:52:05;;;;;;;0.45;0.05;;;;;;;;;;5034994;28;20051;-64